createdAt,value
2018-12-26T00:02:00.693Z,-3.50
2018-12-26T00:06:53.161Z,-3.50
2018-12-26T00:11:45.172Z,-3.60
2018-12-26T00:16:37.304Z,-3.60
2018-12-26T00:21:29.477Z,-3.70
2018-12-26T00:26:21.872Z,-3.80
2018-12-26T00:31:14.494Z,-3.80
2018-12-26T00:36:07.062Z,-3.80
2018-12-26T00:40:59.653Z,-3.80
2018-12-26T00:45:51.974Z,-3.80
2018-12-26T00:50:44.084Z,-3.70
2018-12-26T00:55:36.629Z,-3.70
2018-12-26T01:00:28.721Z,-3.70
2018-12-26T01:05:21.178Z,-3.70
2018-12-26T01:10:13.469Z,-3.80
2018-12-26T01:15:05.905Z,-3.80
2018-12-26T01:19:58.077Z,-3.90
2018-12-26T01:24:50.428Z,-3.90
2018-12-26T01:29:42.710Z,-4.00
2018-12-26T01:34:35.055Z,-4.00
2018-12-26T01:39:27.303Z,-4.00
2018-12-26T01:44:19.305Z,-4.00
2018-12-26T01:49:11.522Z,-4.10
2018-12-26T01:54:03.722Z,-4.10
2018-12-26T01:58:56.153Z,-4.20
2018-12-26T02:03:48.452Z,-4.20
2018-12-26T02:08:40.754Z,-4.30
2018-12-26T02:13:33.124Z,-4.30
2018-12-26T02:18:25.385Z,-4.40
2018-12-26T02:23:17.515Z,-4.30
2018-12-26T02:28:09.997Z,-4.30
2018-12-26T02:33:02.202Z,-4.30
2018-12-26T02:37:54.318Z,-4.30
2018-12-26T02:42:46.427Z,-4.20
2018-12-26T02:47:38.889Z,-4.20
2018-12-26T02:52:31.281Z,-4.20
2018-12-26T02:57:23.407Z,-4.30
2018-12-26T03:02:15.903Z,-4.30
2018-12-26T03:07:08.526Z,-4.40
2018-12-26T03:12:00.738Z,-4.50
2018-12-26T03:16:53.041Z,-4.60
2018-12-26T03:21:45.653Z,-4.70
2018-12-26T03:26:37.784Z,-4.70
2018-12-26T03:31:30.417Z,-4.60
2018-12-26T03:36:22.801Z,-4.60
2018-12-26T03:41:15.258Z,-4.50
2018-12-26T03:46:07.328Z,-4.40
2018-12-26T03:50:59.323Z,-4.50
2018-12-26T03:55:51.829Z,-4.50
2018-12-26T04:00:44.231Z,-4.50
2018-12-26T04:05:36.713Z,-4.30
2018-12-26T04:10:29.370Z,-4.20
2018-12-26T04:15:21.713Z,-4.20
2018-12-26T04:20:13.881Z,-4.20
2018-12-26T04:25:07.295Z,-4.20
2018-12-26T04:29:59.826Z,-4.30
2018-12-26T04:34:52.730Z,-4.30
2018-12-26T04:39:45.078Z,-4.30
2018-12-26T04:44:37.498Z,-4.30
2018-12-26T04:49:29.918Z,-4.30
2018-12-26T04:54:22.308Z,-4.20
2018-12-26T04:59:14.451Z,-4.10
2018-12-26T05:04:06.890Z,-4.00
2018-12-26T05:08:59.372Z,-4.00
2018-12-26T05:13:51.745Z,-4.00
2018-12-26T05:18:44.201Z,-3.90
2018-12-26T05:23:36.770Z,-3.90
2018-12-26T05:28:28.985Z,-3.80
2018-12-26T05:33:21.377Z,-3.80
2018-12-26T05:38:13.828Z,-3.90
2018-12-26T05:43:06.161Z,-3.80
2018-12-26T05:47:58.484Z,-3.80
2018-12-26T05:52:50.657Z,-3.80
2018-12-26T05:57:43.290Z,-3.70
2018-12-26T06:02:35.321Z,-3.60
2018-12-26T06:07:28.329Z,-3.60
2018-12-26T06:12:20.752Z,-3.60
2018-12-26T06:17:13.109Z,-3.60
2018-12-26T06:22:05.368Z,-3.60
2018-12-26T09:10:31.872Z,-2.40
2018-12-26T09:15:24.411Z,-2.40
2018-12-26T09:20:16.702Z,-2.30
2018-12-26T09:25:08.889Z,-2.20
2018-12-26T09:30:02.037Z,-2.20
2018-12-26T09:34:54.332Z,-2.10
2018-12-26T09:39:46.898Z,-2.10
2018-12-26T09:49:55.583Z,-1.90
2018-12-26T09:54:49.225Z,-1.70
2018-12-26T09:59:41.729Z,-1.70
2018-12-26T10:04:33.897Z,-1.80
2018-12-26T10:09:26.304Z,-1.80
2018-12-26T10:14:18.417Z,-1.80
2018-12-26T10:19:11.057Z,-1.70
2018-12-26T10:24:03.421Z,-1.50
2018-12-26T10:29:00.894Z,-1.50
2018-12-26T10:33:56.827Z,-1.40
2018-12-26T10:38:49.722Z,-1.50
2018-12-26T10:43:42.272Z,-1.50
2018-12-26T10:48:34.870Z,-1.40
2018-12-26T10:53:32.222Z,-1.40
2018-12-26T10:58:43.516Z,-1.20
2018-12-26T11:03:39.361Z,-1.20
2018-12-26T11:08:43.524Z,-1.20
2018-12-26T11:13:36.480Z,-1.10
2018-12-26T11:18:30.275Z,-1.00
2018-12-26T11:23:22.788Z,-0.80
2018-12-26T11:28:15.099Z,-0.80
2018-12-26T11:33:08.256Z,-0.80
2018-12-26T11:38:00.430Z,-0.80
2018-12-26T11:42:52.690Z,-0.80
2018-12-26T11:47:45.098Z,-0.80
2018-12-26T11:52:37.339Z,-0.80
2018-12-26T11:57:29.770Z,-0.80
2018-12-26T12:02:22.217Z,-0.70
2018-12-26T12:07:31.831Z,-0.80
2018-12-26T12:12:23.615Z,-0.80
2018-12-26T12:17:15.974Z,-0.70
2018-12-26T12:22:08.456Z,-0.70
2018-12-26T12:27:00.657Z,-0.70
2018-12-26T12:31:53.287Z,-0.70
2018-12-26T12:36:45.435Z,-0.60
2018-12-26T12:41:38.071Z,-0.60
2018-12-26T12:46:32.426Z,-0.50
2018-12-26T12:51:29.097Z,-0.30
2018-12-26T12:56:21.767Z,-0.30
2018-12-26T13:01:14.898Z,-0.30
2018-12-26T13:06:13.787Z,-0.30
2018-12-26T13:11:09.724Z,-0.40
2018-12-26T13:16:03.619Z,-0.40
2018-12-26T13:20:56.049Z,-0.30
2018-12-26T13:25:48.804Z,-0.40
2018-12-26T13:30:41.769Z,-0.40
2018-12-26T13:35:34.453Z,-0.30
2018-12-26T13:40:26.632Z,-0.40
2018-12-26T13:45:18.931Z,-0.40
2018-12-26T13:50:12.447Z,-0.40
2018-12-26T13:55:05.049Z,-0.40
2018-12-26T14:00:02.306Z,-0.50
2018-12-26T14:04:50.983Z,-0.50
2018-12-26T14:09:43.478Z,-0.50
2018-12-26T14:14:35.874Z,-0.40
2018-12-26T14:19:28.050Z,-0.40
2018-12-26T14:24:21.898Z,-0.40
2018-12-26T14:29:16.882Z,-0.40
2018-12-26T14:34:10.484Z,-0.50
2018-12-26T14:39:03.321Z,-0.50
2018-12-26T14:43:55.343Z,-0.50
2018-12-26T14:48:47.849Z,-0.60
2018-12-26T14:53:40.181Z,-0.60
2018-12-26T14:58:32.603Z,-0.70
2018-12-26T15:03:25.130Z,-0.70
2018-12-26T15:08:17.342Z,-0.70
2018-12-26T15:13:09.701Z,-0.70
2018-12-26T15:18:01.985Z,-0.70
2018-12-26T15:22:54.344Z,-0.80
2018-12-26T15:27:46.788Z,-0.90
2018-12-26T15:32:39.154Z,-0.90
2018-12-26T15:37:31.250Z,-0.90
2018-12-26T15:42:40.821Z,-0.90
2018-12-26T15:47:32.660Z,-0.90
2018-12-26T15:58:23.612Z,-0.80
2018-12-26T16:03:17.631Z,-0.90
2018-12-26T16:08:09.861Z,-0.80
2018-12-26T16:13:02.297Z,-0.80
2018-12-26T16:17:54.621Z,-0.80
2018-12-26T16:22:47.102Z,-0.80
2018-12-26T16:27:39.713Z,-0.80
2018-12-26T16:32:32.332Z,-0.80
2018-12-26T16:37:24.551Z,-0.80
2018-12-26T16:47:15.191Z,-0.90
2018-12-26T16:52:07.888Z,-0.90
2018-12-26T16:57:00.588Z,-0.90
2018-12-26T17:01:52.998Z,-0.90
2018-12-26T17:06:45.223Z,-0.90
2018-12-26T17:11:37.460Z,-0.90
2018-12-26T17:16:29.870Z,-0.90
2018-12-26T17:21:22.186Z,-0.90
2018-12-26T17:26:16.865Z,-0.90
2018-12-26T17:31:10.554Z,-1.00
2018-12-26T17:36:02.999Z,-0.90
2018-12-26T17:40:55.010Z,-1.00
2018-12-26T17:45:47.397Z,-1.00
2018-12-26T17:50:47.583Z,-1.10
2018-12-26T17:55:54.949Z,-1.10
2018-12-26T18:00:50.513Z,-1.10
2018-12-26T18:05:43.912Z,-1.10
2018-12-26T18:10:37.751Z,-1.10
2018-12-26T18:15:29.925Z,-1.10
2018-12-26T18:20:22.191Z,-1.10
2018-12-26T18:25:14.920Z,-1.10
2018-12-26T18:30:07.861Z,-1.10
2018-12-26T18:35:00.277Z,-1.10
2018-12-26T18:39:52.611Z,-1.10
2018-12-26T18:44:45.047Z,-1.10
2018-12-26T18:49:37.233Z,-1.10
2018-12-26T18:54:29.944Z,-1.20
2018-12-26T18:59:22.403Z,-1.20
2018-12-26T19:04:14.982Z,-1.30
2018-12-26T19:09:07.877Z,-1.30
2018-12-26T19:14:00.684Z,-1.30
2018-12-26T19:18:53.960Z,-1.30
2018-12-26T19:23:46.591Z,-1.30
2018-12-26T19:28:39.353Z,-1.30
2018-12-26T19:33:31.992Z,-1.30
2018-12-26T19:38:24.644Z,-1.20
2018-12-26T19:43:17.176Z,-1.20
2018-12-26T19:48:10.694Z,-1.30
2018-12-26T19:53:02.882Z,-1.30
2018-12-26T19:57:54.983Z,-1.30
2018-12-26T20:02:47.761Z,-1.30
2018-12-26T20:07:40.225Z,-1.30
2018-12-26T20:12:32.454Z,-1.30
2018-12-26T20:17:25.254Z,-1.30
2018-12-26T20:22:17.851Z,-1.30
2018-12-26T20:27:11.276Z,-1.30
2018-12-26T20:32:03.166Z,-1.40
2018-12-26T20:36:55.659Z,-1.50
2018-12-26T20:41:47.942Z,-1.40
2018-12-26T20:46:40.247Z,-1.40
2018-12-26T20:51:40.826Z,-1.30
2018-12-26T20:56:38.033Z,-1.30
2018-12-26T21:01:30.889Z,-1.30
2018-12-26T21:06:23.404Z,-1.20
2018-12-26T21:11:15.573Z,-1.30
2018-12-26T21:16:07.985Z,-1.20
2018-12-26T21:21:00.331Z,-1.20
2018-12-26T21:25:52.718Z,-1.20
2018-12-26T21:30:46.108Z,-1.20
2018-12-26T21:35:38.234Z,-1.10
2018-12-26T21:40:30.318Z,-1.20
2018-12-26T21:45:24.809Z,-1.20
2018-12-26T21:50:16.876Z,-1.10
2018-12-26T22:00:23.481Z,-1.30
2018-12-26T22:05:17.138Z,-1.20
2018-12-26T22:10:10.556Z,-1.20
2018-12-26T22:15:04.152Z,-1.20
2018-12-26T22:19:57.474Z,-1.30
2018-12-26T22:24:50.374Z,-1.30
2018-12-26T22:29:42.414Z,-1.30
2018-12-26T22:34:34.633Z,-1.30
2018-12-26T22:39:26.929Z,-1.30
2018-12-26T22:44:19.055Z,-1.30
2018-12-26T22:49:11.614Z,-1.20
2018-12-26T22:54:03.917Z,-1.30
2018-12-26T22:58:56.649Z,-1.30
2018-12-26T23:03:48.653Z,-1.30
2018-12-26T23:08:41.058Z,-1.30
2018-12-26T23:13:33.910Z,-1.30
2018-12-26T23:18:26.490Z,-1.30
2018-12-26T23:23:18.961Z,-1.30
2018-12-26T23:28:12.140Z,-1.30
2018-12-26T23:33:04.607Z,-1.30
2018-12-26T23:37:59.676Z,-1.30
2018-12-26T23:42:52.208Z,-1.30
2018-12-26T23:47:44.730Z,-1.30
2018-12-26T23:52:36.826Z,-1.30
2018-12-26T23:57:29.154Z,-1.40
